sensor_id;sensor_type;location;lat;lon;timestamp;P1;durP1;ratioP1;P2;durP2;ratioP2
80711;SDS011;70078;51.596;5.678;2023-11-21T00:01:27;13.57;;;8.50;;
80711;SDS011;70078;51.596;5.678;2023-11-21T00:06:20;13.07;;;7.35;;
80711;SDS011;70078;51.596;5.678;2023-11-21T00:11:10;12.20;;;7.13;;
80711;SDS011;70078;51.596;5.678;2023-11-21T00:13:36;13.48;;;7.93;;
80711;SDS011;70078;51.596;5.678;2023-11-21T00:16:02;13.00;;;8.50;;
80711;SDS011;70078;51.596;5.678;2023-11-21T00:18:29;12.43;;;8.45;;
80711;SDS011;70078;51.596;5.678;2023-11-21T00:20:55;12.80;;;7.90;;
80711;SDS011;70078;51.596;5.678;2023-11-21T00:25:45;12.73;;;7.65;;
80711;SDS011;70078;51.596;5.678;2023-11-21T00:30:36;13.47;;;7.90;;
80711;SDS011;70078;51.596;5.678;2023-11-21T00:35:26;12.55;;;7.97;;
80711;SDS011;70078;51.596;5.678;2023-11-21T00:40:17;13.38;;;7.95;;
80711;SDS011;70078;51.596;5.678;2023-11-21T00:42:46;14.90;;;8.60;;
80711;SDS011;70078;51.596;5.678;2023-11-21T00:45:11;13.45;;;7.63;;
80711;SDS011;70078;51.596;5.678;2023-11-21T00:47:36;12.10;;;8.23;;
80711;SDS011;70078;51.596;5.678;2023-11-21T00:50:03;12.38;;;8.00;;
80711;SDS011;70078;51.596;5.678;2023-11-21T00:52:31;17.65;;;8.65;;
80711;SDS011;70078;51.596;5.678;2023-11-21T00:57:25;14.57;;;8.20;;
80711;SDS011;70078;51.596;5.678;2023-11-21T00:59:51;12.70;;;8.75;;
80711;SDS011;70078;51.596;5.678;2023-11-21T01:02:16;12.18;;;7.30;;
80711;SDS011;70078;51.596;5.678;2023-11-21T01:04:41;14.82;;;8.55;;
80711;SDS011;70078;51.596;5.678;2023-11-21T01:09:32;11.05;;;7.35;;
80711;SDS011;70078;51.596;5.678;2023-11-21T01:14:24;12.40;;;8.07;;
80711;SDS011;70078;51.596;5.678;2023-11-21T01:16:53;14.23;;;8.20;;
80711;SDS011;70078;51.596;5.678;2023-11-21T01:19:18;12.73;;;7.93;;
80711;SDS011;70078;51.596;5.678;2023-11-21T01:24:09;15.73;;;7.90;;
80711;SDS011;70078;51.596;5.678;2023-11-21T01:26:34;13.63;;;8.48;;
80711;SDS011;70078;51.596;5.678;2023-11-21T01:29:00;14.73;;;8.43;;
80711;SDS011;70078;51.596;5.678;2023-11-21T01:31:25;13.98;;;7.85;;
80711;SDS011;70078;51.596;5.678;2023-11-21T01:33:54;13.75;;;7.85;;
80711;SDS011;70078;51.596;5.678;2023-11-21T01:38:46;15.75;;;8.45;;
80711;SDS011;70078;51.596;5.678;2023-11-21T01:43:40;15.48;;;8.55;;
80711;SDS011;70078;51.596;5.678;2023-11-21T01:46:06;19.05;;;7.80;;
80711;SDS011;70078;51.596;5.678;2023-11-21T01:48:31;23.45;;;9.00;;
80711;SDS011;70078;51.596;5.678;2023-11-21T01:50:58;17.45;;;9.25;;
80711;SDS011;70078;51.596;5.678;2023-11-21T01:55:50;21.08;;;9.05;;
80711;SDS011;70078;51.596;5.678;2023-11-21T01:58:16;22.15;;;10.35;;
80711;SDS011;70078;51.596;5.678;2023-11-21T02:00:42;19.45;;;9.40;;
80711;SDS011;70078;51.596;5.678;2023-11-21T02:03:08;18.30;;;10.07;;
80711;SDS011;70078;51.596;5.678;2023-11-21T02:05:35;17.85;;;8.90;;
80711;SDS011;70078;51.596;5.678;2023-11-21T02:08:00;17.10;;;7.07;;
80711;SDS011;70078;51.596;5.678;2023-11-21T02:10:27;17.23;;;8.63;;
80711;SDS011;70078;51.596;5.678;2023-11-21T02:12:54;19.92;;;10.30;;
80711;SDS011;70078;51.596;5.678;2023-11-21T02:15:21;18.30;;;9.23;;
80711;SDS011;70078;51.596;5.678;2023-11-21T02:17:47;22.45;;;9.07;;
80711;SDS011;70078;51.596;5.678;2023-11-21T02:20:16;21.83;;;9.18;;
80711;SDS011;70078;51.596;5.678;2023-11-21T02:25:14;24.75;;;10.20;;
80711;SDS011;70078;51.596;5.678;2023-11-21T02:27:40;21.08;;;10.10;;
80711;SDS011;70078;51.596;5.678;2023-11-21T02:30:05;21.15;;;10.57;;
80711;SDS011;70078;51.596;5.678;2023-11-21T02:32:33;25.92;;;9.77;;
80711;SDS011;70078;51.596;5.678;2023-11-21T02:37:27;30.88;;;9.68;;
80711;SDS011;70078;51.596;5.678;2023-11-21T02:39:59;21.38;;;9.15;;
80711;SDS011;70078;51.596;5.678;2023-11-21T02:42:24;19.60;;;9.43;;
80711;SDS011;70078;51.596;5.678;2023-11-21T02:44:49;18.40;;;9.18;;
80711;SDS011;70078;51.596;5.678;2023-11-21T02:47:15;21.67;;;9.23;;
80711;SDS011;70078;51.596;5.678;2023-11-21T02:52:08;29.83;;;8.93;;
80711;SDS011;70078;51.596;5.678;2023-11-21T02:54:33;22.02;;;8.82;;
80711;SDS011;70078;51.596;5.678;2023-11-21T02:57:01;38.08;;;10.68;;
80711;SDS011;70078;51.596;5.678;2023-11-21T02:59:27;28.65;;;7.47;;
80711;SDS011;70078;51.596;5.678;2023-11-21T03:01:52;24.70;;;9.48;;
80711;SDS011;70078;51.596;5.678;2023-11-21T03:06:44;26.33;;;8.50;;
80711;SDS011;70078;51.596;5.678;2023-11-21T03:09:12;23.52;;;9.45;;
80711;SDS011;70078;51.596;5.678;2023-11-21T03:11:37;16.05;;;7.60;;
80711;SDS011;70078;51.596;5.678;2023-11-21T03:16:28;18.20;;;8.15;;
80711;SDS011;70078;51.596;5.678;2023-11-21T03:21:19;17.70;;;8.00;;
80711;SDS011;70078;51.596;5.678;2023-11-21T03:26:13;20.67;;;7.80;;
80711;SDS011;70078;51.596;5.678;2023-11-21T03:28:39;10.93;;;7.43;;
80711;SDS011;70078;51.596;5.678;2023-11-21T03:31:04;18.55;;;8.07;;
80711;SDS011;70078;51.596;5.678;2023-11-21T03:33:31;15.00;;;6.80;;
80711;SDS011;70078;51.596;5.678;2023-11-21T03:35:57;14.75;;;7.65;;
80711;SDS011;70078;51.596;5.678;2023-11-21T03:40:48;23.60;;;7.60;;
80711;SDS011;70078;51.596;5.678;2023-11-21T03:43:14;21.88;;;8.10;;
80711;SDS011;70078;51.596;5.678;2023-11-21T03:45:39;19.73;;;8.60;;
80711;SDS011;70078;51.596;5.678;2023-11-21T03:48:05;23.13;;;8.52;;
80711;SDS011;70078;51.596;5.678;2023-11-21T03:50:31;20.27;;;8.70;;
80711;SDS011;70078;51.596;5.678;2023-11-21T03:52:57;24.38;;;8.80;;
80711;SDS011;70078;51.596;5.678;2023-11-21T03:55:22;18.92;;;8.75;;
80711;SDS011;70078;51.596;5.678;2023-11-21T03:57:50;15.07;;;8.93;;
80711;SDS011;70078;51.596;5.678;2023-11-21T04:00:16;28.48;;;9.65;;
80711;SDS011;70078;51.596;5.678;2023-11-21T04:02:42;24.25;;;8.32;;
80711;SDS011;70078;51.596;5.678;2023-11-21T04:07:32;16.90;;;8.60;;
80711;SDS011;70078;51.596;5.678;2023-11-21T04:09:59;17.60;;;7.90;;
80711;SDS011;70078;51.596;5.678;2023-11-21T04:12:24;28.70;;;9.10;;
80711;SDS011;70078;51.596;5.678;2023-11-21T04:14:49;24.80;;;9.02;;
80711;SDS011;70078;51.596;5.678;2023-11-21T04:17:17;28.95;;;7.63;;
80711;SDS011;70078;51.596;5.678;2023-11-21T04:19:43;27.33;;;8.77;;
80711;SDS011;70078;51.596;5.678;2023-11-21T04:22:08;29.95;;;9.43;;
80711;SDS011;70078;51.596;5.678;2023-11-21T04:26:59;33.10;;;8.40;;
80711;SDS011;70078;51.596;5.678;2023-11-21T04:29:24;17.45;;;7.90;;
80711;SDS011;70078;51.596;5.678;2023-11-21T04:31:49;15.13;;;7.60;;
80711;SDS011;70078;51.596;5.678;2023-11-21T04:34:15;24.60;;;7.80;;
80711;SDS011;70078;51.596;5.678;2023-11-21T04:36:40;25.33;;;8.63;;
80711;SDS011;70078;51.596;5.678;2023-11-21T04:39:06;39.03;;;9.48;;
80711;SDS011;70078;51.596;5.678;2023-11-21T04:41:32;16.73;;;7.57;;
80711;SDS011;70078;51.596;5.678;2023-11-21T04:43:57;22.40;;;8.40;;
80711;SDS011;70078;51.596;5.678;2023-11-21T04:46:23;22.23;;;7.32;;
80711;SDS011;70078;51.596;5.678;2023-11-21T04:48:49;30.83;;;7.40;;
80711;SDS011;70078;51.596;5.678;2023-11-21T04:53:39;24.33;;;7.57;;
80711;SDS011;70078;51.596;5.678;2023-11-21T04:56:05;15.77;;;7.72;;
80711;SDS011;70078;51.596;5.678;2023-11-21T04:58:33;15.63;;;8.05;;
80711;SDS011;70078;51.596;5.678;2023-11-21T05:00:58;19.88;;;7.75;;
80711;SDS011;70078;51.596;5.678;2023-11-21T05:03:24;23.67;;;7.75;;
80711;SDS011;70078;51.596;5.678;2023-11-21T05:08:14;19.97;;;7.27;;
80711;SDS011;70078;51.596;5.678;2023-11-21T05:10:40;11.95;;;7.30;;
80711;SDS011;70078;51.596;5.678;2023-11-21T05:13:05;16.52;;;7.90;;
80711;SDS011;70078;51.596;5.678;2023-11-21T05:15:35;16.65;;;7.68;;
80711;SDS011;70078;51.596;5.678;2023-11-21T05:18:00;15.30;;;8.80;;
80711;SDS011;70078;51.596;5.678;2023-11-21T05:20:25;17.23;;;7.57;;
80711;SDS011;70078;51.596;5.678;2023-11-21T05:25:16;17.58;;;8.65;;
80711;SDS011;70078;51.596;5.678;2023-11-21T05:27:43;14.68;;;8.35;;
80711;SDS011;70078;51.596;5.678;2023-11-21T05:30:09;14.43;;;8.13;;
80711;SDS011;70078;51.596;5.678;2023-11-21T05:32:37;10.88;;;7.03;;
80711;SDS011;70078;51.596;5.678;2023-11-21T05:35:03;13.13;;;7.82;;
80711;SDS011;70078;51.596;5.678;2023-11-21T05:37:29;10.68;;;8.02;;
80711;SDS011;70078;51.596;5.678;2023-11-21T05:39:54;13.40;;;7.70;;
80711;SDS011;70078;51.596;5.678;2023-11-21T05:42:23;14.98;;;8.55;;
80711;SDS011;70078;51.596;5.678;2023-11-21T05:44:48;13.20;;;8.25;;
80711;SDS011;70078;51.596;5.678;2023-11-21T05:47:14;13.48;;;9.30;;
80711;SDS011;70078;51.596;5.678;2023-11-21T05:52:05;13.83;;;8.67;;
80711;SDS011;70078;51.596;5.678;2023-11-21T05:56:56;11.88;;;8.38;;
80711;SDS011;70078;51.596;5.678;2023-11-21T05:59:21;11.82;;;8.35;;
80711;SDS011;70078;51.596;5.678;2023-11-21T06:01:47;14.43;;;8.63;;
80711;SDS011;70078;51.596;5.678;2023-11-21T06:04:13;11.98;;;7.78;;
80711;SDS011;70078;51.596;5.678;2023-11-21T06:06:38;13.45;;;8.75;;
80711;SDS011;70078;51.596;5.678;2023-11-21T06:09:04;14.00;;;8.73;;
80711;SDS011;70078;51.596;5.678;2023-11-21T06:11:30;15.18;;;9.57;;
80711;SDS011;70078;51.596;5.678;2023-11-21T06:13:56;13.30;;;8.95;;
80711;SDS011;70078;51.596;5.678;2023-11-21T06:18:47;13.47;;;8.53;;
80711;SDS011;70078;51.596;5.678;2023-11-21T06:23:38;15.20;;;8.38;;
80711;SDS011;70078;51.596;5.678;2023-11-21T06:26:04;13.85;;;10.45;;
80711;SDS011;70078;51.596;5.678;2023-11-21T06:30:55;13.32;;;8.93;;
80711;SDS011;70078;51.596;5.678;2023-11-21T06:33:22;13.18;;;9.25;;
80711;SDS011;70078;51.596;5.678;2023-11-21T06:35:48;14.07;;;8.80;;
80711;SDS011;70078;51.596;5.678;2023-11-21T06:38:14;15.13;;;8.95;;
80711;SDS011;70078;51.596;5.678;2023-11-21T06:40:39;16.30;;;10.65;;
80711;SDS011;70078;51.596;5.678;2023-11-21T06:43:05;16.10;;;9.25;;
80711;SDS011;70078;51.596;5.678;2023-11-21T06:45:32;16.13;;;10.32;;
80711;SDS011;70078;51.596;5.678;2023-11-21T06:47:59;16.10;;;10.48;;
80711;SDS011;70078;51.596;5.678;2023-11-21T06:50:24;14.73;;;9.40;;
80711;SDS011;70078;51.596;5.678;2023-11-21T06:52:50;16.83;;;10.23;;
80711;SDS011;70078;51.596;5.678;2023-11-21T06:55:15;17.80;;;9.98;;
80711;SDS011;70078;51.596;5.678;2023-11-21T06:57:41;15.95;;;10.23;;
80711;SDS011;70078;51.596;5.678;2023-11-21T07:00:06;17.95;;;9.65;;
80711;SDS011;70078;51.596;5.678;2023-11-21T07:02:34;16.02;;;8.70;;
80711;SDS011;70078;51.596;5.678;2023-11-21T07:07:27;19.80;;;9.05;;
80711;SDS011;70078;51.596;5.678;2023-11-21T07:09:52;17.08;;;10.15;;
80711;SDS011;70078;51.596;5.678;2023-11-21T07:12:18;18.10;;;10.18;;
80711;SDS011;70078;51.596;5.678;2023-11-21T07:14:44;15.45;;;9.52;;
80711;SDS011;70078;51.596;5.678;2023-11-21T07:17:11;15.88;;;10.02;;
80711;SDS011;70078;51.596;5.678;2023-11-21T07:19:37;16.85;;;9.95;;
80711;SDS011;70078;51.596;5.678;2023-11-21T07:22:03;16.90;;;10.15;;
80711;SDS011;70078;51.596;5.678;2023-11-21T07:24:28;16.95;;;10.25;;
80711;SDS011;70078;51.596;5.678;2023-11-21T07:26:54;18.48;;;9.85;;
80711;SDS011;70078;51.596;5.678;2023-11-21T07:29:21;16.48;;;10.63;;
80711;SDS011;70078;51.596;5.678;2023-11-21T07:31:48;19.45;;;11.20;;
80711;SDS011;70078;51.596;5.678;2023-11-21T07:34:13;19.35;;;10.30;;
80711;SDS011;70078;51.596;5.678;2023-11-21T07:36:38;17.38;;;9.25;;
80711;SDS011;70078;51.596;5.678;2023-11-21T07:39:04;16.45;;;10.18;;
80711;SDS011;70078;51.596;5.678;2023-11-21T07:41:31;17.83;;;9.45;;
80711;SDS011;70078;51.596;5.678;2023-11-21T07:43:57;21.40;;;9.90;;
80711;SDS011;70078;51.596;5.678;2023-11-21T07:46:22;17.35;;;9.80;;
80711;SDS011;70078;51.596;5.678;2023-11-21T07:48:49;17.67;;;10.55;;
80711;SDS011;70078;51.596;5.678;2023-11-21T07:51:14;16.88;;;10.18;;
80711;SDS011;70078;51.596;5.678;2023-11-21T07:53:40;14.63;;;10.13;;
80711;SDS011;70078;51.596;5.678;2023-11-21T07:56:05;17.35;;;10.25;;
80711;SDS011;70078;51.596;5.678;2023-11-21T07:58:32;19.33;;;10.38;;
80711;SDS011;70078;51.596;5.678;2023-11-21T08:01:00;17.60;;;9.85;;
80711;SDS011;70078;51.596;5.678;2023-11-21T08:03:25;18.40;;;9.95;;
80711;SDS011;70078;51.596;5.678;2023-11-21T08:05:52;15.77;;;10.07;;
80711;SDS011;70078;51.596;5.678;2023-11-21T08:08:17;16.50;;;9.82;;
80711;SDS011;70078;51.596;5.678;2023-11-21T08:10:43;15.95;;;9.60;;
80711;SDS011;70078;51.596;5.678;2023-11-21T08:13:11;20.50;;;10.77;;
80711;SDS011;70078;51.596;5.678;2023-11-21T08:15:39;20.08;;;10.70;;
80711;SDS011;70078;51.596;5.678;2023-11-21T08:18:05;19.75;;;10.63;;
80711;SDS011;70078;51.596;5.678;2023-11-21T08:20:32;17.88;;;9.90;;
80711;SDS011;70078;51.596;5.678;2023-11-21T08:22:58;16.10;;;9.70;;
80711;SDS011;70078;51.596;5.678;2023-11-21T08:25:23;19.05;;;9.70;;
80711;SDS011;70078;51.596;5.678;2023-11-21T08:27:48;17.33;;;10.45;;
80711;SDS011;70078;51.596;5.678;2023-11-21T08:30:14;17.90;;;9.80;;
80711;SDS011;70078;51.596;5.678;2023-11-21T08:32:41;20.23;;;11.02;;
80711;SDS011;70078;51.596;5.678;2023-11-21T08:35:07;21.10;;;11.07;;
80711;SDS011;70078;51.596;5.678;2023-11-21T08:37:33;17.88;;;10.05;;
80711;SDS011;70078;51.596;5.678;2023-11-21T08:40:02;17.63;;;10.18;;
80711;SDS011;70078;51.596;5.678;2023-11-21T08:42:29;17.30;;;10.68;;
80711;SDS011;70078;51.596;5.678;2023-11-21T08:45:01;16.80;;;10.23;;
80711;SDS011;70078;51.596;5.678;2023-11-21T08:47:26;18.98;;;10.30;;
80711;SDS011;70078;51.596;5.678;2023-11-21T08:52:20;16.05;;;9.48;;
80711;SDS011;70078;51.596;5.678;2023-11-21T08:54:49;15.38;;;9.65;;
80711;SDS011;70078;51.596;5.678;2023-11-21T08:57:21;15.20;;;9.77;;
80711;SDS011;70078;51.596;5.678;2023-11-21T08:59:49;16.15;;;8.70;;
80711;SDS011;70078;51.596;5.678;2023-11-21T09:02:20;16.73;;;9.93;;
80711;SDS011;70078;51.596;5.678;2023-11-21T09:04:45;17.35;;;9.30;;
80711;SDS011;70078;51.596;5.678;2023-11-21T09:09:36;16.15;;;9.60;;
80711;SDS011;70078;51.596;5.678;2023-11-21T09:14:30;15.13;;;9.27;;
80711;SDS011;70078;51.596;5.678;2023-11-21T09:16:55;16.95;;;10.15;;
80711;SDS011;70078;51.596;5.678;2023-11-21T09:21:46;14.68;;;8.98;;
80711;SDS011;70078;51.596;5.678;2023-11-21T09:26:40;15.65;;;9.95;;
80711;SDS011;70078;51.596;5.678;2023-11-21T09:29:06;16.98;;;10.82;;
80711;SDS011;70078;51.596;5.678;2023-11-21T09:31:34;17.27;;;9.95;;
80711;SDS011;70078;51.596;5.678;2023-11-21T09:34:00;18.98;;;10.98;;
80711;SDS011;70078;51.596;5.678;2023-11-21T09:36:27;16.77;;;9.70;;
80711;SDS011;70078;51.596;5.678;2023-11-21T09:38:54;17.55;;;10.85;;
80711;SDS011;70078;51.596;5.678;2023-11-21T09:44:00;14.95;;;9.20;;
80711;SDS011;70078;51.596;5.678;2023-11-21T09:46:29;22.38;;;10.52;;
80711;SDS011;70078;51.596;5.678;2023-11-21T09:48:55;18.75;;;10.23;;
80711;SDS011;70078;51.596;5.678;2023-11-21T09:51:26;22.25;;;11.13;;
80711;SDS011;70078;51.596;5.678;2023-11-21T09:53:55;19.35;;;10.98;;
80711;SDS011;70078;51.596;5.678;2023-11-21T09:56:23;22.17;;;11.23;;
80711;SDS011;70078;51.596;5.678;2023-11-21T09:58:52;22.50;;;10.55;;
80711;SDS011;70078;51.596;5.678;2023-11-21T10:01:18;24.25;;;11.23;;
80711;SDS011;70078;51.596;5.678;2023-11-21T10:03:45;21.05;;;10.98;;
80711;SDS011;70078;51.596;5.678;2023-11-21T10:06:12;25.08;;;12.85;;
80711;SDS011;70078;51.596;5.678;2023-11-21T10:08:39;23.55;;;12.00;;
80711;SDS011;70078;51.596;5.678;2023-11-21T10:11:05;22.23;;;11.95;;
80711;SDS011;70078;51.596;5.678;2023-11-21T10:13:36;24.15;;;10.07;;
80711;SDS011;70078;51.596;5.678;2023-11-21T10:16:02;19.20;;;12.15;;
80711;SDS011;70078;51.596;5.678;2023-11-21T10:18:36;19.98;;;11.02;;
80711;SDS011;70078;51.596;5.678;2023-11-21T10:21:04;22.00;;;11.20;;
80711;SDS011;70078;51.596;5.678;2023-11-21T10:23:31;20.17;;;10.93;;
80711;SDS011;70078;51.596;5.678;2023-11-21T10:28:24;21.92;;;11.13;;
80711;SDS011;70078;51.596;5.678;2023-11-21T10:33:14;21.02;;;11.52;;
80711;SDS011;70078;51.596;5.678;2023-11-21T10:38:15;19.17;;;12.07;;
80711;SDS011;70078;51.596;5.678;2023-11-21T10:40:41;22.10;;;11.32;;
80711;SDS011;70078;51.596;5.678;2023-11-21T10:45:36;20.67;;;11.32;;
80711;SDS011;70078;51.596;5.678;2023-11-21T10:48:04;24.10;;;12.35;;
80711;SDS011;70078;51.596;5.678;2023-11-21T10:50:35;23.90;;;11.55;;
80711;SDS011;70078;51.596;5.678;2023-11-21T10:55:27;22.40;;;11.98;;
80711;SDS011;70078;51.596;5.678;2023-11-21T11:00:19;21.95;;;11.85;;
80711;SDS011;70078;51.596;5.678;2023-11-21T11:02:51;20.08;;;10.70;;
80711;SDS011;70078;51.596;5.678;2023-11-21T11:05:19;22.92;;;12.68;;
80711;SDS011;70078;51.596;5.678;2023-11-21T11:07:48;27.58;;;13.52;;
80711;SDS011;70078;51.596;5.678;2023-11-21T11:10:22;26.00;;;13.02;;
80711;SDS011;70078;51.596;5.678;2023-11-21T11:12:51;22.88;;;11.98;;
80711;SDS011;70078;51.596;5.678;2023-11-21T11:15:17;22.95;;;12.45;;
80711;SDS011;70078;51.596;5.678;2023-11-21T11:17:44;21.70;;;12.27;;
80711;SDS011;70078;51.596;5.678;2023-11-21T11:20:11;23.25;;;13.27;;
80711;SDS011;70078;51.596;5.678;2023-11-21T11:28:10;23.02;;;11.27;;
80711;SDS011;70078;51.596;5.678;2023-11-21T11:36:15;23.83;;;13.52;;
80711;SDS011;70078;51.596;5.678;2023-11-21T11:38:47;22.42;;;11.00;;
80711;SDS011;70078;51.596;5.678;2023-11-21T11:41:19;20.27;;;11.82;;
80711;SDS011;70078;51.596;5.678;2023-11-21T11:43:51;22.52;;;11.95;;
80711;SDS011;70078;51.596;5.678;2023-11-21T11:48:41;20.55;;;11.32;;
80711;SDS011;70078;51.596;5.678;2023-11-21T11:51:13;19.15;;;11.70;;
80711;SDS011;70078;51.596;5.678;2023-11-21T11:53:42;20.75;;;12.35;;
80711;SDS011;70078;51.596;5.678;2023-11-21T11:58:48;19.02;;;10.80;;
80711;SDS011;70078;51.596;5.678;2023-11-21T12:01:16;16.52;;;10.85;;
80711;SDS011;70078;51.596;5.678;2023-11-21T12:03:43;16.75;;;9.85;;
80711;SDS011;70078;51.596;5.678;2023-11-21T12:06:09;16.02;;;9.98;;
80711;SDS011;70078;51.596;5.678;2023-11-21T12:08:36;17.92;;;12.95;;
80711;SDS011;70078;51.596;5.678;2023-11-21T12:11:02;16.30;;;10.07;;
80711;SDS011;70078;51.596;5.678;2023-11-21T12:13:29;14.85;;;9.65;;
80711;SDS011;70078;51.596;5.678;2023-11-21T12:18:20;16.57;;;8.77;;
80711;SDS011;70078;51.596;5.678;2023-11-21T12:23:13;14.25;;;8.32;;
80711;SDS011;70078;51.596;5.678;2023-11-21T12:25:40;14.57;;;9.38;;
80711;SDS011;70078;51.596;5.678;2023-11-21T12:28:09;15.40;;;9.13;;
80711;SDS011;70078;51.596;5.678;2023-11-21T12:30:36;17.30;;;8.90;;
80711;SDS011;70078;51.596;5.678;2023-11-21T12:33:03;16.48;;;9.05;;
80711;SDS011;70078;51.596;5.678;2023-11-21T12:35:33;12.48;;;8.07;;
80711;SDS011;70078;51.596;5.678;2023-11-21T12:38:11;15.07;;;8.90;;
80711;SDS011;70078;51.596;5.678;2023-11-21T12:40:50;13.65;;;8.52;;
80711;SDS011;70078;51.596;5.678;2023-11-21T12:43:16;15.02;;;9.00;;
80711;SDS011;70078;51.596;5.678;2023-11-21T12:45:43;14.15;;;8.85;;
80711;SDS011;70078;51.596;5.678;2023-11-21T12:50:36;17.10;;;9.23;;
80711;SDS011;70078;51.596;5.678;2023-11-21T12:55:37;19.42;;;10.65;;
80711;SDS011;70078;51.596;5.678;2023-11-21T13:03:10;16.95;;;10.13;;
80711;SDS011;70078;51.596;5.678;2023-11-21T13:05:41;22.13;;;10.63;;
80711;SDS011;70078;51.596;5.678;2023-11-21T13:08:10;18.48;;;11.23;;
80711;SDS011;70078;51.596;5.678;2023-11-21T13:10:48;19.20;;;12.45;;
80711;SDS011;70078;51.596;5.678;2023-11-21T13:13:19;22.17;;;12.05;;
80711;SDS011;70078;51.596;5.678;2023-11-21T13:15:55;19.30;;;11.73;;
80711;SDS011;70078;51.596;5.678;2023-11-21T13:18:25;19.98;;;11.02;;
80711;SDS011;70078;51.596;5.678;2023-11-21T13:20:56;21.98;;;11.02;;
80711;SDS011;70078;51.596;5.678;2023-11-21T13:23:23;23.73;;;12.13;;
80711;SDS011;70078;51.596;5.678;2023-11-21T13:25:49;20.35;;;11.70;;
80711;SDS011;70078;51.596;5.678;2023-11-21T13:28:15;19.50;;;10.73;;
80711;SDS011;70078;51.596;5.678;2023-11-21T13:33:07;16.30;;;9.88;;
80711;SDS011;70078;51.596;5.678;2023-11-21T13:35:33;17.67;;;10.35;;
80711;SDS011;70078;51.596;5.678;2023-11-21T13:38:13;17.75;;;9.55;;
80711;SDS011;70078;51.596;5.678;2023-11-21T13:40:41;15.88;;;8.65;;
80711;SDS011;70078;51.596;5.678;2023-11-21T13:43:14;14.82;;;8.50;;
80711;SDS011;70078;51.596;5.678;2023-11-21T13:45:43;15.57;;;9.98;;
80711;SDS011;70078;51.596;5.678;2023-11-21T13:48:11;16.33;;;10.15;;
80711;SDS011;70078;51.596;5.678;2023-11-21T13:50:39;17.70;;;10.10;;
80711;SDS011;70078;51.596;5.678;2023-11-21T13:53:13;17.48;;;9.50;;
80711;SDS011;70078;51.596;5.678;2023-11-21T13:55:47;16.55;;;10.10;;
80711;SDS011;70078;51.596;5.678;2023-11-21T13:58:14;16.20;;;9.65;;
80711;SDS011;70078;51.596;5.678;2023-11-21T14:00:47;15.45;;;9.50;;
80711;SDS011;70078;51.596;5.678;2023-11-21T14:03:21;16.00;;;9.50;;
80711;SDS011;70078;51.596;5.678;2023-11-21T14:05:48;14.02;;;8.88;;
80711;SDS011;70078;51.596;5.678;2023-11-21T14:08:19;14.48;;;9.63;;
80711;SDS011;70078;51.596;5.678;2023-11-21T14:10:46;16.73;;;9.02;;
80711;SDS011;70078;51.596;5.678;2023-11-21T14:13:16;13.35;;;8.38;;
80711;SDS011;70078;51.596;5.678;2023-11-21T14:15:42;11.23;;;7.00;;
80711;SDS011;70078;51.596;5.678;2023-11-21T14:18:10;9.90;;;5.88;;
80711;SDS011;70078;51.596;5.678;2023-11-21T14:20:37;11.18;;;6.43;;
80711;SDS011;70078;51.596;5.678;2023-11-21T14:25:30;11.85;;;7.13;;
80711;SDS011;70078;51.596;5.678;2023-11-21T14:27:57;11.23;;;6.07;;
80711;SDS011;70078;51.596;5.678;2023-11-21T14:32:47;9.43;;;6.13;;
80711;SDS011;70078;51.596;5.678;2023-11-21T14:35:13;6.82;;;4.80;;
80711;SDS011;70078;51.596;5.678;2023-11-21T14:37:39;10.35;;;5.93;;
80711;SDS011;70078;51.596;5.678;2023-11-21T14:42:33;8.00;;;4.82;;
80711;SDS011;70078;51.596;5.678;2023-11-21T14:45:02;8.25;;;5.57;;
80711;SDS011;70078;51.596;5.678;2023-11-21T14:47:31;10.05;;;6.88;;
80711;SDS011;70078;51.596;5.678;2023-11-21T14:52:24;12.48;;;7.82;;
80711;SDS011;70078;51.596;5.678;2023-11-21T14:55:02;10.30;;;6.47;;
80711;SDS011;70078;51.596;5.678;2023-11-21T14:57:46;17.92;;;9.48;;
80711;SDS011;70078;51.596;5.678;2023-11-21T15:00:18;12.88;;;8.43;;
80711;SDS011;70078;51.596;5.678;2023-11-21T15:03:03;16.52;;;8.98;;
80711;SDS011;70078;51.596;5.678;2023-11-21T15:05:29;14.95;;;8.52;;
80711;SDS011;70078;51.596;5.678;2023-11-21T15:10:38;12.52;;;7.53;;
80711;SDS011;70078;51.596;5.678;2023-11-21T15:13:21;13.20;;;7.90;;
80711;SDS011;70078;51.596;5.678;2023-11-21T15:15:49;14.70;;;8.68;;
80711;SDS011;70078;51.596;5.678;2023-11-21T15:20:40;7.78;;;4.90;;
80711;SDS011;70078;51.596;5.678;2023-11-21T15:23:06;16.17;;;7.85;;
80711;SDS011;70078;51.596;5.678;2023-11-21T15:27:58;14.93;;;9.20;;
80711;SDS011;70078;51.596;5.678;2023-11-21T15:30:24;13.35;;;8.13;;
80711;SDS011;70078;51.596;5.678;2023-11-21T15:35:16;13.40;;;7.28;;
80711;SDS011;70078;51.596;5.678;2023-11-21T15:40:08;18.48;;;7.13;;
80711;SDS011;70078;51.596;5.678;2023-11-21T15:42:34;15.18;;;7.43;;
80711;SDS011;70078;51.596;5.678;2023-11-21T15:45:04;16.83;;;8.88;;
80711;SDS011;70078;51.596;5.678;2023-11-21T15:47:32;14.32;;;7.72;;
80711;SDS011;70078;51.596;5.678;2023-11-21T15:52:22;12.93;;;6.87;;
80711;SDS011;70078;51.596;5.678;2023-11-21T15:57:13;11.15;;;5.47;;
80711;SDS011;70078;51.596;5.678;2023-11-21T15:59:39;13.60;;;6.32;;
80711;SDS011;70078;51.596;5.678;2023-11-21T16:02:07;12.80;;;5.40;;
80711;SDS011;70078;51.596;5.678;2023-11-21T16:04:32;9.95;;;5.95;;
80711;SDS011;70078;51.596;5.678;2023-11-21T16:07:00;9.43;;;5.60;;
80711;SDS011;70078;51.596;5.678;2023-11-21T16:11:59;10.77;;;5.15;;
80711;SDS011;70078;51.596;5.678;2023-11-21T16:14:28;10.52;;;5.45;;
80711;SDS011;70078;51.596;5.678;2023-11-21T16:19:25;9.35;;;4.85;;
80711;SDS011;70078;51.596;5.678;2023-11-21T16:24:16;10.13;;;5.40;;
80711;SDS011;70078;51.596;5.678;2023-11-21T16:29:07;8.55;;;5.25;;
80711;SDS011;70078;51.596;5.678;2023-11-21T16:33:59;9.90;;;6.35;;
80711;SDS011;70078;51.596;5.678;2023-11-21T16:38:49;9.37;;;5.33;;
80711;SDS011;70078;51.596;5.678;2023-11-21T16:41:15;7.25;;;4.68;;
80711;SDS011;70078;51.596;5.678;2023-11-21T16:43:42;11.90;;;7.07;;
80711;SDS011;70078;51.596;5.678;2023-11-21T16:48:36;8.13;;;4.47;;
80711;SDS011;70078;51.596;5.678;2023-11-21T16:51:02;11.32;;;6.25;;
80711;SDS011;70078;51.596;5.678;2023-11-21T16:53:27;12.13;;;7.25;;
80711;SDS011;70078;51.596;5.678;2023-11-21T16:58:18;9.80;;;5.83;;
80711;SDS011;70078;51.596;5.678;2023-11-21T17:00:43;6.10;;;3.10;;
80711;SDS011;70078;51.596;5.678;2023-11-21T17:03:12;10.45;;;7.40;;
80711;SDS011;70078;51.596;5.678;2023-11-21T17:05:37;8.40;;;5.95;;
80711;SDS011;70078;51.596;5.678;2023-11-21T17:08:03;11.73;;;7.18;;
80711;SDS011;70078;51.596;5.678;2023-11-21T17:10:29;10.80;;;6.90;;
80711;SDS011;70078;51.596;5.678;2023-11-21T17:12:55;8.40;;;6.03;;
80711;SDS011;70078;51.596;5.678;2023-11-21T17:15:20;11.55;;;6.90;;
80711;SDS011;70078;51.596;5.678;2023-11-21T17:17:46;8.05;;;5.88;;
80711;SDS011;70078;51.596;5.678;2023-11-21T17:20:12;11.98;;;6.85;;
80711;SDS011;70078;51.596;5.678;2023-11-21T17:22:39;7.97;;;5.32;;
80711;SDS011;70078;51.596;5.678;2023-11-21T17:25:05;11.82;;;8.43;;
80711;SDS011;70078;51.596;5.678;2023-11-21T17:27:32;10.30;;;7.55;;
80711;SDS011;70078;51.596;5.678;2023-11-21T17:29:58;7.68;;;3.50;;
80711;SDS011;70078;51.596;5.678;2023-11-21T17:32:23;8.38;;;4.90;;
80711;SDS011;70078;51.596;5.678;2023-11-21T17:37:13;11.05;;;7.10;;
80711;SDS011;70078;51.596;5.678;2023-11-21T17:39:41;7.97;;;6.20;;